sensor_id;sensor_type;location;lat;lon;timestamp;P1;durP1;ratioP1;P2;durP2;ratioP2
5845;SDS011;2949;50.778;7.094;2023-05-10T00:02:07;2.53;;;2.30;;
5845;SDS011;2949;50.778;7.094;2023-05-10T00:04:33;2.83;;;2.50;;
5845;SDS011;2949;50.778;7.094;2023-05-10T00:06:58;2.47;;;2.27;;
5845;SDS011;2949;50.778;7.094;2023-05-10T00:09:24;2.87;;;2.30;;
5845;SDS011;2949;50.778;7.094;2023-05-10T00:11:49;3.13;;;2.83;;
5845;SDS011;2949;50.778;7.094;2023-05-10T00:14:15;3.23;;;3.03;;
5845;SDS011;2949;50.778;7.094;2023-05-10T00:16:41;3.37;;;3.00;;
5845;SDS011;2949;50.778;7.094;2023-05-10T00:19:06;4.90;;;2.80;;
5845;SDS011;2949;50.778;7.094;2023-05-10T00:21:32;3.50;;;3.20;;
5845;SDS011;2949;50.778;7.094;2023-05-10T00:23:58;3.50;;;3.20;;
5845;SDS011;2949;50.778;7.094;2023-05-10T00:26:24;4.30;;;3.53;;
5845;SDS011;2949;50.778;7.094;2023-05-10T00:28:50;5.23;;;3.57;;
5845;SDS011;2949;50.778;7.094;2023-05-10T00:31:15;3.57;;;3.30;;
5845;SDS011;2949;50.778;7.094;2023-05-10T00:33:41;3.20;;;2.90;;
5845;SDS011;2949;50.778;7.094;2023-05-10T00:36:06;3.20;;;2.90;;
5845;SDS011;2949;50.778;7.094;2023-05-10T00:38:32;4.70;;;3.23;;
5845;SDS011;2949;50.778;7.094;2023-05-10T00:40:58;3.80;;;3.33;;
5845;SDS011;2949;50.778;7.094;2023-05-10T00:43:24;3.37;;;3.07;;
5845;SDS011;2949;50.778;7.094;2023-05-10T00:45:49;4.30;;;3.87;;
5845;SDS011;2949;50.778;7.094;2023-05-10T00:48:15;7.17;;;3.07;;
5845;SDS011;2949;50.778;7.094;2023-05-10T00:50:41;4.70;;;3.37;;
5845;SDS011;2949;50.778;7.094;2023-05-10T00:53:07;4.33;;;3.90;;
5845;SDS011;2949;50.778;7.094;2023-05-10T00:55:33;4.27;;;3.83;;
5845;SDS011;2949;50.778;7.094;2023-05-10T00:57:58;4.17;;;3.07;;
5845;SDS011;2949;50.778;7.094;2023-05-10T01:00:24;4.40;;;3.30;;
5845;SDS011;2949;50.778;7.094;2023-05-10T01:02:50;8.63;;;3.20;;
5845;SDS011;2949;50.778;7.094;2023-05-10T01:05:17;3.20;;;3.00;;
5845;SDS011;2949;50.778;7.094;2023-05-10T01:07:43;3.53;;;2.90;;
5845;SDS011;2949;50.778;7.094;2023-05-10T01:10:08;3.00;;;2.80;;
5845;SDS011;2949;50.778;7.094;2023-05-10T01:12:35;3.63;;;3.33;;
5845;SDS011;2949;50.778;7.094;2023-05-10T01:15:05;4.53;;;3.10;;
5845;SDS011;2949;50.778;7.094;2023-05-10T01:17:32;3.10;;;2.80;;
5845;SDS011;2949;50.778;7.094;2023-05-10T01:20:00;3.00;;;2.80;;
5845;SDS011;2949;50.778;7.094;2023-05-10T01:30:45;2.40;;;2.23;;
5845;SDS011;2949;50.778;7.094;2023-05-10T01:34:33;2.00;;;1.77;;
5845;SDS011;2949;50.778;7.094;2023-05-10T01:39:11;1.87;;;1.60;;
5845;SDS011;2949;50.778;7.094;2023-05-10T01:42:13;3.43;;;1.43;;
5845;SDS011;2949;50.778;7.094;2023-05-10T01:47:17;2.30;;;1.73;;
5845;SDS011;2949;50.778;7.094;2023-05-10T01:49:52;1.80;;;1.70;;
5845;SDS011;2949;50.778;7.094;2023-05-10T01:52:22;1.63;;;1.53;;
5845;SDS011;2949;50.778;7.094;2023-05-10T01:55:02;1.80;;;1.70;;
5845;SDS011;2949;50.778;7.094;2023-05-10T01:57:33;1.67;;;1.57;;
5845;SDS011;2949;50.778;7.094;2023-05-10T02:00:04;5.70;;;1.30;;
5845;SDS011;2949;50.778;7.094;2023-05-10T02:02:33;3.10;;;1.77;;
5845;SDS011;2949;50.778;7.094;2023-05-10T02:05:07;3.37;;;1.50;;
5845;SDS011;2949;50.778;7.094;2023-05-10T02:07:34;2.67;;;1.70;;
5845;SDS011;2949;50.778;7.094;2023-05-10T02:10:02;1.80;;;1.50;;
5845;SDS011;2949;50.778;7.094;2023-05-10T02:12:32;3.80;;;1.93;;
5845;SDS011;2949;50.778;7.094;2023-05-10T02:15:02;3.13;;;2.33;;
5845;SDS011;2949;50.778;7.094;2023-05-10T02:17:29;3.27;;;1.80;;
5845;SDS011;2949;50.778;7.094;2023-05-10T02:19:56;1.63;;;1.53;;
5845;SDS011;2949;50.778;7.094;2023-05-10T02:22:24;1.30;;;1.27;;
5845;SDS011;2949;50.778;7.094;2023-05-10T02:24:52;1.50;;;1.40;;
5845;SDS011;2949;50.778;7.094;2023-05-10T02:27:23;2.80;;;1.77;;
5845;SDS011;2949;50.778;7.094;2023-05-10T02:29:49;1.80;;;1.70;;
5845;SDS011;2949;50.778;7.094;2023-05-10T02:32:16;2.90;;;2.00;;
5845;SDS011;2949;50.778;7.094;2023-05-10T02:34:42;2.07;;;1.83;;
5845;SDS011;2949;50.778;7.094;2023-05-10T02:37:10;2.30;;;2.13;;
5845;SDS011;2949;50.778;7.094;2023-05-10T02:39:39;2.47;;;2.27;;
5845;SDS011;2949;50.778;7.094;2023-05-10T02:42:08;3.43;;;2.47;;
5845;SDS011;2949;50.778;7.094;2023-05-10T02:44:40;2.37;;;2.27;;
5845;SDS011;2949;50.778;7.094;2023-05-10T02:47:08;4.33;;;2.70;;
5845;SDS011;2949;50.778;7.094;2023-05-10T02:49:33;4.40;;;3.27;;
5845;SDS011;2949;50.778;7.094;2023-05-10T02:52:00;3.33;;;3.03;;
5845;SDS011;2949;50.778;7.094;2023-05-10T02:54:30;4.00;;;3.40;;
5845;SDS011;2949;50.778;7.094;2023-05-10T02:57:02;4.33;;;3.60;;
5845;SDS011;2949;50.778;7.094;2023-05-10T02:59:29;4.00;;;3.60;;
5845;SDS011;2949;50.778;7.094;2023-05-10T03:01:55;8.10;;;4.20;;
5845;SDS011;2949;50.778;7.094;2023-05-10T03:04:21;6.47;;;4.60;;
5845;SDS011;2949;50.778;7.094;2023-05-10T03:06:46;7.07;;;5.23;;
5845;SDS011;2949;50.778;7.094;2023-05-10T03:09:12;7.80;;;4.50;;
5845;SDS011;2949;50.778;7.094;2023-05-10T03:17:23;6.57;;;5.10;;
5845;SDS011;2949;50.778;7.094;2023-05-10T03:19:59;4.77;;;4.20;;
5845;SDS011;2949;50.778;7.094;2023-05-10T03:22:33;6.17;;;3.80;;
5845;SDS011;2949;50.778;7.094;2023-05-10T03:25:03;6.33;;;4.57;;
5845;SDS011;2949;50.778;7.094;2023-05-10T03:27:31;4.43;;;3.87;;
5845;SDS011;2949;50.778;7.094;2023-05-10T03:29:57;15.13;;;4.20;;
5845;SDS011;2949;50.778;7.094;2023-05-10T03:32:24;6.30;;;4.20;;
5845;SDS011;2949;50.778;7.094;2023-05-10T03:34:52;4.83;;;4.30;;
5845;SDS011;2949;50.778;7.094;2023-05-10T03:37:17;8.63;;;4.40;;
5845;SDS011;2949;50.778;7.094;2023-05-10T03:39:43;5.77;;;4.17;;
5845;SDS011;2949;50.778;7.094;2023-05-10T03:42:08;9.00;;;4.83;;
5845;SDS011;2949;50.778;7.094;2023-05-10T03:44:36;12.27;;;6.50;;
5845;SDS011;2949;50.778;7.094;2023-05-10T03:47:03;10.27;;;6.03;;
5845;SDS011;2949;50.778;7.094;2023-05-10T03:49:28;13.13;;;8.10;;
5845;SDS011;2949;50.778;7.094;2023-05-10T03:51:54;15.00;;;7.63;;
5845;SDS011;2949;50.778;7.094;2023-05-10T03:54:19;14.33;;;7.80;;
5845;SDS011;2949;50.778;7.094;2023-05-10T03:56:45;24.50;;;8.73;;
5845;SDS011;2949;50.778;7.094;2023-05-10T03:59:12;14.83;;;8.60;;
5845;SDS011;2949;50.778;7.094;2023-05-10T04:01:38;16.67;;;8.00;;
5845;SDS011;2949;50.778;7.094;2023-05-10T04:04:03;20.40;;;10.40;;
5845;SDS011;2949;50.778;7.094;2023-05-10T04:06:29;19.60;;;10.77;;
5845;SDS011;2949;50.778;7.094;2023-05-10T04:08:55;20.03;;;9.00;;
5845;SDS011;2949;50.778;7.094;2023-05-10T04:11:21;19.53;;;8.00;;
5845;SDS011;2949;50.778;7.094;2023-05-10T04:13:47;23.17;;;10.37;;
5845;SDS011;2949;50.778;7.094;2023-05-10T04:16:13;12.83;;;8.67;;
5845;SDS011;2949;50.778;7.094;2023-05-10T04:18:38;20.70;;;9.80;;
5845;SDS011;2949;50.778;7.094;2023-05-10T04:21:10;13.70;;;8.60;;
5845;SDS011;2949;50.778;7.094;2023-05-10T04:23:37;18.80;;;10.43;;
5845;SDS011;2949;50.778;7.094;2023-05-10T04:26:02;19.20;;;9.67;;
5845;SDS011;2949;50.778;7.094;2023-05-10T04:28:28;20.10;;;11.07;;
5845;SDS011;2949;50.778;7.094;2023-05-10T04:31:00;24.97;;;12.90;;
5845;SDS011;2949;50.778;7.094;2023-05-10T04:33:29;21.90;;;12.23;;
5845;SDS011;2949;50.778;7.094;2023-05-10T04:35:54;23.93;;;13.13;;
5845;SDS011;2949;50.778;7.094;2023-05-10T04:38:20;20.00;;;12.73;;
5845;SDS011;2949;50.778;7.094;2023-05-10T04:40:46;33.40;;;13.83;;
5845;SDS011;2949;50.778;7.094;2023-05-10T04:43:11;27.07;;;13.90;;
5845;SDS011;2949;50.778;7.094;2023-05-10T04:45:37;23.20;;;13.67;;
5845;SDS011;2949;50.778;7.094;2023-05-10T04:48:02;24.67;;;15.40;;
5845;SDS011;2949;50.778;7.094;2023-05-10T04:50:28;24.83;;;14.00;;
5845;SDS011;2949;50.778;7.094;2023-05-10T04:52:54;27.30;;;15.77;;
5845;SDS011;2949;50.778;7.094;2023-05-10T04:55:19;30.80;;;16.50;;
5845;SDS011;2949;50.778;7.094;2023-05-10T04:57:45;30.30;;;15.47;;
5845;SDS011;2949;50.778;7.094;2023-05-10T05:00:10;26.20;;;16.47;;
5845;SDS011;2949;50.778;7.094;2023-05-10T05:02:37;30.37;;;16.13;;
5845;SDS011;2949;50.778;7.094;2023-05-10T05:05:03;26.90;;;16.57;;
5845;SDS011;2949;50.778;7.094;2023-05-10T05:07:29;27.70;;;15.03;;
5845;SDS011;2949;50.778;7.094;2023-05-10T05:09:55;28.43;;;16.00;;
5845;SDS011;2949;50.778;7.094;2023-05-10T05:12:21;28.70;;;16.67;;
5845;SDS011;2949;50.778;7.094;2023-05-10T05:14:46;26.03;;;17.67;;
5845;SDS011;2949;50.778;7.094;2023-05-10T05:17:12;27.23;;;16.47;;
5845;SDS011;2949;50.778;7.094;2023-05-10T05:19:37;23.47;;;15.03;;
5845;SDS011;2949;50.778;7.094;2023-05-10T05:22:03;35.63;;;16.60;;
5845;SDS011;2949;50.778;7.094;2023-05-10T05:24:28;25.53;;;15.43;;
5845;SDS011;2949;50.778;7.094;2023-05-10T05:26:54;31.80;;;16.60;;
5845;SDS011;2949;50.778;7.094;2023-05-10T05:29:19;28.60;;;15.80;;
5845;SDS011;2949;50.778;7.094;2023-05-10T05:31:45;25.23;;;15.27;;
5845;SDS011;2949;50.778;7.094;2023-05-10T05:34:10;31.63;;;16.67;;
5845;SDS011;2949;50.778;7.094;2023-05-10T05:36:36;21.90;;;14.80;;
5845;SDS011;2949;50.778;7.094;2023-05-10T05:39:03;30.13;;;16.37;;
5845;SDS011;2949;50.778;7.094;2023-05-10T05:41:29;24.93;;;14.87;;
5845;SDS011;2949;50.778;7.094;2023-05-10T05:43:55;27.13;;;14.87;;
5845;SDS011;2949;50.778;7.094;2023-05-10T05:46:20;29.07;;;14.60;;
5845;SDS011;2949;50.778;7.094;2023-05-10T05:48:46;25.77;;;14.23;;
5845;SDS011;2949;50.778;7.094;2023-05-10T05:51:11;23.00;;;14.40;;
5845;SDS011;2949;50.778;7.094;2023-05-10T05:53:37;21.93;;;14.03;;
5845;SDS011;2949;50.778;7.094;2023-05-10T05:56:02;20.47;;;13.43;;
5845;SDS011;2949;50.778;7.094;2023-05-10T05:58:28;21.00;;;14.40;;
5845;SDS011;2949;50.778;7.094;2023-05-10T06:00:54;20.67;;;13.30;;
5845;SDS011;2949;50.778;7.094;2023-05-10T06:03:19;21.53;;;13.20;;
5845;SDS011;2949;50.778;7.094;2023-05-10T06:05:45;19.73;;;13.53;;
5845;SDS011;2949;50.778;7.094;2023-05-10T06:08:11;23.53;;;13.70;;
5845;SDS011;2949;50.778;7.094;2023-05-10T06:10:36;23.83;;;14.60;;
5845;SDS011;2949;50.778;7.094;2023-05-10T06:13:02;22.63;;;12.97;;
5845;SDS011;2949;50.778;7.094;2023-05-10T06:15:28;18.60;;;12.77;;
5845;SDS011;2949;50.778;7.094;2023-05-10T06:17:53;18.47;;;13.30;;
5845;SDS011;2949;50.778;7.094;2023-05-10T06:20:19;22.43;;;12.87;;
5845;SDS011;2949;50.778;7.094;2023-05-10T06:22:44;17.70;;;12.00;;
5845;SDS011;2949;50.778;7.094;2023-05-10T06:25:10;19.03;;;12.57;;
5845;SDS011;2949;50.778;7.094;2023-05-10T06:27:36;15.67;;;11.10;;
5845;SDS011;2949;50.778;7.094;2023-05-10T06:30:01;15.00;;;10.83;;
5845;SDS011;2949;50.778;7.094;2023-05-10T06:32:27;21.40;;;10.93;;
5845;SDS011;2949;50.778;7.094;2023-05-10T06:34:53;17.07;;;10.47;;
5845;SDS011;2949;50.778;7.094;2023-05-10T06:37:19;16.37;;;9.80;;
5845;SDS011;2949;50.778;7.094;2023-05-10T06:39:45;21.60;;;9.47;;
5845;SDS011;2949;50.778;7.094;2023-05-10T06:42:10;16.40;;;9.30;;
5845;SDS011;2949;50.778;7.094;2023-05-10T06:44:36;12.80;;;9.30;;
5845;SDS011;2949;50.778;7.094;2023-05-10T06:47:01;15.80;;;8.43;;
5845;SDS011;2949;50.778;7.094;2023-05-10T06:49:27;12.70;;;6.23;;
5845;SDS011;2949;50.778;7.094;2023-05-10T06:51:52;10.97;;;6.17;;
5845;SDS011;2949;50.778;7.094;2023-05-10T06:54:18;11.50;;;5.90;;
5845;SDS011;2949;50.778;7.094;2023-05-10T06:56:43;10.43;;;5.10;;
5845;SDS011;2949;50.778;7.094;2023-05-10T06:59:09;6.63;;;4.50;;
5845;SDS011;2949;50.778;7.094;2023-05-10T07:01:34;10.70;;;5.20;;
5845;SDS011;2949;50.778;7.094;2023-05-10T07:04:00;5.00;;;4.50;;
5845;SDS011;2949;50.778;7.094;2023-05-10T07:06:25;6.63;;;3.93;;
5845;SDS011;2949;50.778;7.094;2023-05-10T07:08:52;5.67;;;3.43;;
5845;SDS011;2949;50.778;7.094;2023-05-10T07:11:17;8.23;;;3.40;;
5845;SDS011;2949;50.778;7.094;2023-05-10T07:13:43;4.73;;;3.27;;
5845;SDS011;2949;50.778;7.094;2023-05-10T07:16:11;13.20;;;3.77;;
5845;SDS011;2949;50.778;7.094;2023-05-10T07:18:36;6.10;;;4.27;;
5845;SDS011;2949;50.778;7.094;2023-05-10T07:21:02;4.53;;;3.30;;
5845;SDS011;2949;50.778;7.094;2023-05-10T07:23:27;5.27;;;3.30;;
5845;SDS011;2949;50.778;7.094;2023-05-10T07:25:53;7.00;;;3.27;;
5845;SDS011;2949;50.778;7.094;2023-05-10T07:28:19;9.70;;;3.90;;
5845;SDS011;2949;50.778;7.094;2023-05-10T07:30:45;9.00;;;3.87;;
5845;SDS011;2949;50.778;7.094;2023-05-10T07:33:12;4.80;;;2.80;;
5845;SDS011;2949;50.778;7.094;2023-05-10T07:35:38;3.20;;;3.00;;
5845;SDS011;2949;50.778;7.094;2023-05-10T07:38:04;7.33;;;3.97;;
5845;SDS011;2949;50.778;7.094;2023-05-10T07:40:30;9.13;;;3.10;;
5845;SDS011;2949;50.778;7.094;2023-05-10T07:42:56;7.43;;;3.40;;
5845;SDS011;2949;50.778;7.094;2023-05-10T07:45:22;6.40;;;4.00;;
5845;SDS011;2949;50.778;7.094;2023-05-10T07:47:48;5.27;;;3.63;;
5845;SDS011;2949;50.778;7.094;2023-05-10T07:50:13;7.10;;;3.30;;
5845;SDS011;2949;50.778;7.094;2023-05-10T07:52:39;6.50;;;3.47;;
5845;SDS011;2949;50.778;7.094;2023-05-10T07:55:05;5.47;;;3.57;;
5845;SDS011;2949;50.778;7.094;2023-05-10T07:57:32;6.70;;;3.60;;
5845;SDS011;2949;50.778;7.094;2023-05-10T08:00:00;4.30;;;3.53;;
5845;SDS011;2949;50.778;7.094;2023-05-10T08:02:26;4.30;;;3.40;;
5845;SDS011;2949;50.778;7.094;2023-05-10T08:04:52;10.70;;;3.70;;
5845;SDS011;2949;50.778;7.094;2023-05-10T08:07:17;5.77;;;4.10;;
5845;SDS011;2949;50.778;7.094;2023-05-10T08:09:43;12.97;;;4.07;;
5845;SDS011;2949;50.778;7.094;2023-05-10T08:12:08;4.00;;;3.43;;
5845;SDS011;2949;50.778;7.094;2023-05-10T08:14:35;6.00;;;3.90;;
5845;SDS011;2949;50.778;7.094;2023-05-10T08:17:03;6.13;;;3.97;;
5845;SDS011;2949;50.778;7.094;2023-05-10T08:19:29;6.10;;;3.00;;
5845;SDS011;2949;50.778;7.094;2023-05-10T08:21:54;5.43;;;3.60;;
5845;SDS011;2949;50.778;7.094;2023-05-10T08:24:23;5.47;;;3.90;;
5845;SDS011;2949;50.778;7.094;2023-05-10T08:26:48;8.53;;;3.47;;
5845;SDS011;2949;50.778;7.094;2023-05-10T08:29:14;7.20;;;4.20;;
5845;SDS011;2949;50.778;7.094;2023-05-10T08:31:40;4.47;;;3.30;;
5845;SDS011;2949;50.778;7.094;2023-05-10T08:34:05;3.60;;;2.83;;
5845;SDS011;2949;50.778;7.094;2023-05-10T08:36:31;8.50;;;5.30;;
5845;SDS011;2949;50.778;7.094;2023-05-10T08:38:57;4.87;;;3.27;;
5845;SDS011;2949;50.778;7.094;2023-05-10T08:41:23;4.13;;;2.80;;
5845;SDS011;2949;50.778;7.094;2023-05-10T08:43:50;4.23;;;2.73;;
5845;SDS011;2949;50.778;7.094;2023-05-10T08:46:17;4.33;;;3.23;;
5845;SDS011;2949;50.778;7.094;2023-05-10T08:48:44;3.17;;;2.07;;
5845;SDS011;2949;50.778;7.094;2023-05-10T08:51:13;4.43;;;2.20;;
5845;SDS011;2949;50.778;7.094;2023-05-10T08:53:39;2.20;;;2.03;;
5845;SDS011;2949;50.778;7.094;2023-05-10T08:56:05;5.10;;;2.17;;
5845;SDS011;2949;50.778;7.094;2023-05-10T08:58:31;2.30;;;2.20;;
5845;SDS011;2949;50.778;7.094;2023-05-10T09:00:57;5.03;;;1.83;;
5845;SDS011;2949;50.778;7.094;2023-05-10T09:03:23;1.67;;;1.57;;
5845;SDS011;2949;50.778;7.094;2023-05-10T09:05:48;2.87;;;1.43;;
5845;SDS011;2949;50.778;7.094;2023-05-10T09:08:14;2.83;;;1.53;;
5845;SDS011;2949;50.778;7.094;2023-05-10T09:10:41;1.47;;;1.07;;
5845;SDS011;2949;50.778;7.094;2023-05-10T09:13:12;0.93;;;0.80;;
5845;SDS011;2949;50.778;7.094;2023-05-10T09:15:39;0.90;;;0.90;;
5845;SDS011;2949;50.778;7.094;2023-05-10T09:18:04;1.07;;;0.97;;
5845;SDS011;2949;50.778;7.094;2023-05-10T09:20:30;0.80;;;0.80;;
5845;SDS011;2949;50.778;7.094;2023-05-10T09:22:56;0.70;;;0.70;;
5845;SDS011;2949;50.778;7.094;2023-05-10T09:25:21;3.27;;;0.80;;
5845;SDS011;2949;50.778;7.094;2023-05-10T09:27:47;1.37;;;1.37;;
5845;SDS011;2949;50.778;7.094;2023-05-10T09:30:17;0.60;;;0.60;;
5845;SDS011;2949;50.778;7.094;2023-05-10T09:32:52;0.50;;;0.50;;
5845;SDS011;2949;50.778;7.094;2023-05-10T09:35:19;1.07;;;0.73;;
5845;SDS011;2949;50.778;7.094;2023-05-10T09:37:47;1.17;;;1.17;;
5845;SDS011;2949;50.778;7.094;2023-05-10T09:40:16;0.60;;;0.60;;
5845;SDS011;2949;50.778;7.094;2023-05-10T09:42:50;1.53;;;0.90;;
5845;SDS011;2949;50.778;7.094;2023-05-10T09:45:20;6.80;;;1.00;;
5845;SDS011;2949;50.778;7.094;2023-05-10T09:47:46;0.90;;;0.73;;
5845;SDS011;2949;50.778;7.094;2023-05-10T09:50:12;1.73;;;0.70;;
5845;SDS011;2949;50.778;7.094;2023-05-10T09:52:51;1.67;;;0.77;;
5845;SDS011;2949;50.778;7.094;2023-05-10T09:55:24;1.00;;;1.00;;
5845;SDS011;2949;50.778;7.094;2023-05-10T09:58:10;1.20;;;1.10;;
5845;SDS011;2949;50.778;7.094;2023-05-10T10:00:36;1.70;;;1.57;;
5845;SDS011;2949;50.778;7.094;2023-05-10T10:03:04;2.07;;;1.87;;
5845;SDS011;2949;50.778;7.094;2023-05-10T10:05:30;2.70;;;2.03;;
5845;SDS011;2949;50.778;7.094;2023-05-10T10:07:57;4.63;;;2.53;;
5845;SDS011;2949;50.778;7.094;2023-05-10T10:10:23;3.47;;;3.17;;
5845;SDS011;2949;50.778;7.094;2023-05-10T10:12:50;6.13;;;3.80;;
5845;SDS011;2949;50.778;7.094;2023-05-10T10:15:16;4.63;;;3.37;;
5845;SDS011;2949;50.778;7.094;2023-05-10T10:17:42;5.10;;;3.60;;
5845;SDS011;2949;50.778;7.094;2023-05-10T10:20:08;5.30;;;4.13;;
5845;SDS011;2949;50.778;7.094;2023-05-10T10:22:36;8.70;;;4.90;;
5845;SDS011;2949;50.778;7.094;2023-05-10T10:25:02;8.67;;;5.70;;
5845;SDS011;2949;50.778;7.094;2023-05-10T10:30:16;8.30;;;5.27;;
5845;SDS011;2949;50.778;7.094;2023-05-10T10:35:28;7.73;;;5.43;;
5845;SDS011;2949;50.778;7.094;2023-05-10T10:37:55;7.53;;;4.90;;
5845;SDS011;2949;50.778;7.094;2023-05-10T10:42:51;5.00;;;4.23;;
5845;SDS011;2949;50.778;7.094;2023-05-10T10:45:18;6.40;;;4.70;;
5845;SDS011;2949;50.778;7.094;2023-05-10T10:47:44;9.00;;;5.40;;
5845;SDS011;2949;50.778;7.094;2023-05-10T10:50:10;12.77;;;6.90;;
5845;SDS011;2949;50.778;7.094;2023-05-10T10:52:41;8.40;;;5.20;;
5845;SDS011;2949;50.778;7.094;2023-05-10T10:55:15;6.83;;;4.90;;
5845;SDS011;2949;50.778;7.094;2023-05-10T10:57:47;7.90;;;4.90;;
5845;SDS011;2949;50.778;7.094;2023-05-10T11:00:26;5.73;;;3.87;;
5845;SDS011;2949;50.778;7.094;2023-05-10T11:10:36;2.30;;;2.10;;
5845;SDS011;2949;50.778;7.094;2023-05-10T11:13:03;2.60;;;1.80;;
5845;SDS011;2949;50.778;7.094;2023-05-10T11:18:15;2.33;;;1.20;;
5845;SDS011;2949;50.778;7.094;2023-05-10T11:21:01;1.73;;;0.87;;
5845;SDS011;2949;50.778;7.094;2023-05-10T11:23:51;1.17;;;1.07;;
5845;SDS011;2949;50.778;7.094;2023-05-10T11:26:17;1.17;;;1.00;;
5845;SDS011;2949;50.778;7.094;2023-05-10T11:31:09;0.90;;;0.90;;
5845;SDS011;2949;50.778;7.094;2023-05-10T11:33:48;4.43;;;1.00;;
5845;SDS011;2949;50.778;7.094;2023-05-10T11:36:16;0.87;;;0.83;;
5845;SDS011;2949;50.778;7.094;2023-05-10T11:38:46;1.00;;;0.60;;
5845;SDS011;2949;50.778;7.094;2023-05-10T11:41:13;0.67;;;0.63;;
5845;SDS011;2949;50.778;7.094;2023-05-10T11:43:40;0.77;;;0.77;;
5845;SDS011;2949;50.778;7.094;2023-05-10T11:46:07;0.50;;;0.50;;
5845;SDS011;2949;50.778;7.094;2023-05-10T11:48:34;0.60;;;0.60;;
5845;SDS011;2949;50.778;7.094;2023-05-10T11:51:00;0.67;;;0.67;;
5845;SDS011;2949;50.778;7.094;2023-05-10T11:53:27;0.60;;;0.60;;
5845;SDS011;2949;50.778;7.094;2023-05-10T11:55:54;1.30;;;1.10;;
5845;SDS011;2949;50.778;7.094;2023-05-10T11:58:19;0.50;;;0.50;;
5845;SDS011;2949;50.778;7.094;2023-05-10T12:00:46;1.20;;;0.70;;
5845;SDS011;2949;50.778;7.094;2023-05-10T12:03:13;1.07;;;0.60;;
5845;SDS011;2949;50.778;7.094;2023-05-10T12:05:38;0.80;;;0.80;;
5845;SDS011;2949;50.778;7.094;2023-05-10T12:08:13;0.60;;;0.60;;
5845;SDS011;2949;50.778;7.094;2023-05-10T12:10:39;1.07;;;0.70;;
5845;SDS011;2949;50.778;7.094;2023-05-10T12:13:19;1.20;;;1.20;;
5845;SDS011;2949;50.778;7.094;2023-05-10T12:15:46;1.10;;;1.10;;
5845;SDS011;2949;50.778;7.094;2023-05-10T12:18:12;2.47;;;0.90;;
5845;SDS011;2949;50.778;7.094;2023-05-10T12:20:39;1.10;;;1.00;;
5845;SDS011;2949;50.778;7.094;2023-05-10T12:23:07;0.97;;;0.87;;
5845;SDS011;2949;50.778;7.094;2023-05-10T12:25:34;1.83;;;0.67;;
5845;SDS011;2949;50.778;7.094;2023-05-10T12:28:05;0.90;;;0.63;;
5845;SDS011;2949;50.778;7.094;2023-05-10T12:30:32;0.70;;;0.70;;
5845;SDS011;2949;50.778;7.094;2023-05-10T12:33:00;2.10;;;0.80;;
5845;SDS011;2949;50.778;7.094;2023-05-10T12:35:31;2.53;;;0.60;;
5845;SDS011;2949;50.778;7.094;2023-05-10T12:37:57;0.40;;;0.40;;
5845;SDS011;2949;50.778;7.094;2023-05-10T12:40:23;1.53;;;0.53;;
5845;SDS011;2949;50.778;7.094;2023-05-10T12:42:48;0.50;;;0.50;;
5845;SDS011;2949;50.778;7.094;2023-05-10T12:45:14;4.33;;;0.50;;
5845;SDS011;2949;50.778;7.094;2023-05-10T12:47:39;0.50;;;0.50;;
5845;SDS011;2949;50.778;7.094;2023-05-10T12:50:05;1.03;;;0.67;;
5845;SDS011;2949;50.778;7.094;2023-05-10T12:52:32;2.50;;;0.87;;
5845;SDS011;2949;50.778;7.094;2023-05-10T12:54:57;1.17;;;0.40;;
5845;SDS011;2949;50.778;7.094;2023-05-10T12:57:24;0.50;;;0.50;;
5845;SDS011;2949;50.778;7.094;2023-05-10T12:59:50;0.83;;;0.70;;
5845;SDS011;2949;50.778;7.094;2023-05-10T13:02:15;0.73;;;0.73;;
5845;SDS011;2949;50.778;7.094;2023-05-10T13:04:43;0.70;;;0.70;;
5845;SDS011;2949;50.778;7.094;2023-05-10T13:07:09;0.70;;;0.70;;
5845;SDS011;2949;50.778;7.094;2023-05-10T13:09:35;2.00;;;0.70;;
5845;SDS011;2949;50.778;7.094;2023-05-10T13:12:00;0.60;;;0.60;;
5845;SDS011;2949;50.778;7.094;2023-05-10T13:14:27;0.70;;;0.70;;
5845;SDS011;2949;50.778;7.094;2023-05-10T13:16:52;1.27;;;0.70;;
5845;SDS011;2949;50.778;7.094;2023-05-10T13:19:18;0.50;;;0.50;;
5845;SDS011;2949;50.778;7.094;2023-05-10T13:21:44;1.17;;;0.73;;
5845;SDS011;2949;50.778;7.094;2023-05-10T13:24:10;0.47;;;0.47;;
5845;SDS011;2949;50.778;7.094;2023-05-10T13:26:38;0.73;;;0.50;;
5845;SDS011;2949;50.778;7.094;2023-05-10T13:29:05;0.60;;;0.57;;
5845;SDS011;2949;50.778;7.094;2023-05-10T13:31:30;2.20;;;0.70;;
5845;SDS011;2949;50.778;7.094;2023-05-10T13:33:56;1.03;;;0.60;;
5845;SDS011;2949;50.778;7.094;2023-05-10T13:36:21;0.73;;;0.40;;
5845;SDS011;2949;50.778;7.094;2023-05-10T13:38:47;0.40;;;0.40;;
5845;SDS011;2949;50.778;7.094;2023-05-10T13:41:13;0.40;;;0.40;;
5845;SDS011;2949;50.778;7.094;2023-05-10T13:43:39;0.60;;;0.60;;
5845;SDS011;2949;50.778;7.094;2023-05-10T13:46:05;0.43;;;0.43;;
5845;SDS011;2949;50.778;7.094;2023-05-10T13:48:30;1.70;;;0.70;;
5845;SDS011;2949;50.778;7.094;2023-05-10T13:50:56;0.83;;;0.63;;
5845;SDS011;2949;50.778;7.094;2023-05-10T13:53:21;0.80;;;0.53;;
5845;SDS011;2949;50.778;7.094;2023-05-10T13:55:47;1.20;;;0.60;;
5845;SDS011;2949;50.778;7.094;2023-05-10T13:58:13;0.60;;;0.60;;
5845;SDS011;2949;50.778;7.094;2023-05-10T14:00:38;1.87;;;0.67;;
5845;SDS011;2949;50.778;7.094;2023-05-10T14:03:04;0.60;;;0.60;;
5845;SDS011;2949;50.778;7.094;2023-05-10T14:05:33;0.93;;;0.70;;
5845;SDS011;2949;50.778;7.094;2023-05-10T14:07:59;1.03;;;0.80;;
5845;SDS011;2949;50.778;7.094;2023-05-10T14:10:25;0.93;;;0.70;;
5845;SDS011;2949;50.778;7.094;2023-05-10T14:12:50;0.90;;;0.90;;
5845;SDS011;2949;50.778;7.094;2023-05-10T14:15:16;4.17;;;0.70;;
5845;SDS011;2949;50.778;7.094;2023-05-10T14:17:41;0.70;;;0.70;;
5845;SDS011;2949;50.778;7.094;2023-05-10T14:20:07;0.60;;;0.60;;
5845;SDS011;2949;50.778;7.094;2023-05-10T14:22:33;0.93;;;0.93;;
5845;SDS011;2949;50.778;7.094;2023-05-10T14:24:59;0.77;;;0.77;;
5845;SDS011;2949;50.778;7.094;2023-05-10T14:27:25;2.00;;;1.23;;
5845;SDS011;2949;50.778;7.094;2023-05-10T14:29:50;1.33;;;0.97;;
5845;SDS011;2949;50.778;7.094;2023-05-10T14:32:16;3.37;;;1.10;;
5845;SDS011;2949;50.778;7.094;2023-05-10T14:34:42;0.70;;;0.70;;
5845;SDS011;2949;50.778;7.094;2023-05-10T14:37:09;0.83;;;0.83;;
5845;SDS011;2949;50.778;7.094;2023-05-10T14:39:36;1.40;;;1.07;;
5845;SDS011;2949;50.778;7.094;2023-05-10T14:42:01;2.10;;;0.90;;
5845;SDS011;2949;50.778;7.094;2023-05-10T14:44:27;0.87;;;0.87;;
5845;SDS011;2949;50.778;7.094;2023-05-10T14:46:53;0.77;;;0.77;;
5845;SDS011;2949;50.778;7.094;2023-05-10T14:49:18;1.27;;;0.87;;
5845;SDS011;2949;50.778;7.094;2023-05-10T14:51:44;1.03;;;0.93;;
5845;SDS011;2949;50.778;7.094;2023-05-10T14:54:10;1.03;;;1.00;;
5845;SDS011;2949;50.778;7.094;2023-05-10T14:56:36;0.90;;;0.90;;
5845;SDS011;2949;50.778;7.094;2023-05-10T14:59:02;0.80;;;0.80;;
5845;SDS011;2949;50.778;7.094;2023-05-10T15:01:28;1.30;;;0.77;;
5845;SDS011;2949;50.778;7.094;2023-05-10T15:03:54;0.83;;;0.83;;
5845;SDS011;2949;50.778;7.094;2023-05-10T15:06:23;1.17;;;1.07;;
5845;SDS011;2949;50.778;7.094;2023-05-10T15:08:55;0.40;;;0.40;;
5845;SDS011;2949;50.778;7.094;2023-05-10T15:11:20;1.27;;;0.60;;
5845;SDS011;2949;50.778;7.094;2023-05-10T15:13:46;3.80;;;1.10;;
5845;SDS011;2949;50.778;7.094;2023-05-10T15:16:11;2.80;;;1.20;;
5845;SDS011;2949;50.778;7.094;2023-05-10T15:18:37;1.37;;;1.23;;
5845;SDS011;2949;50.778;7.094;2023-05-10T15:21:02;1.63;;;1.40;;
5845;SDS011;2949;50.778;7.094;2023-05-10T15:23:28;1.33;;;1.10;;
5845;SDS011;2949;50.778;7.094;2023-05-10T15:25:54;1.23;;;1.13;;
5845;SDS011;2949;50.778;7.094;2023-05-10T15:28:20;2.93;;;1.10;;
5845;SDS011;2949;50.778;7.094;2023-05-10T15:30:46;1.43;;;1.10;;
5845;SDS011;2949;50.778;7.094;2023-05-10T15:33:11;4.40;;;1.30;;
5845;SDS011;2949;50.778;7.094;2023-05-10T15:35:37;1.40;;;1.30;;
5845;SDS011;2949;50.778;7.094;2023-05-10T15:38:04;1.30;;;1.20;;
5845;SDS011;2949;50.778;7.094;2023-05-10T15:40:30;2.57;;;1.50;;
5845;SDS011;2949;50.778;7.094;2023-05-10T15:42:56;1.40;;;1.30;;
5845;SDS011;2949;50.778;7.094;2023-05-10T15:45:21;3.87;;;1.57;;
5845;SDS011;2949;50.778;7.094;2023-05-10T15:47:47;2.13;;;1.20;;
5845;SDS011;2949;50.778;7.094;2023-05-10T15:50:13;1.43;;;1.33;;